createdAt,value
2022-10-08T00:00:09.696Z,47.96
2022-10-08T00:02:38.739Z,48.31
2022-10-08T00:05:08.198Z,48.16
2022-10-08T00:07:37.728Z,48.37
2022-10-08T00:10:09.477Z,48.45
2022-10-08T00:12:37.732Z,48.09
2022-10-08T00:15:07.012Z,48.46
2022-10-08T00:17:35.798Z,48.19
2022-10-08T00:20:04.352Z,48.37
2022-10-08T00:22:32.712Z,48.34
2022-10-08T00:25:02.709Z,48.71
2022-10-08T00:27:31.068Z,48.50
2022-10-08T00:29:59.265Z,48.73
2022-10-08T00:32:27.498Z,48.97
2022-10-08T00:34:55.553Z,48.78
2022-10-08T00:37:26.324Z,48.80
2022-10-08T00:39:54.414Z,49.03
2022-10-08T00:42:24.898Z,49.31
2022-10-08T00:44:59.013Z,49.15
2022-10-08T00:47:36.423Z,48.88
2022-10-08T00:50:06.779Z,49.12
2022-10-08T00:52:37.403Z,48.99
2022-10-08T00:55:07.116Z,49.44
2022-10-08T00:57:36.802Z,49.00
2022-10-08T01:00:06.192Z,49.08
2022-10-08T01:02:34.488Z,49.29
2022-10-08T01:05:02.782Z,49.10
2022-10-08T01:07:32.595Z,48.94
2022-10-08T01:10:03.725Z,49.04
2022-10-08T01:12:41.799Z,49.06
2022-10-08T01:15:13.263Z,48.89
2022-10-08T01:17:47.901Z,48.88
2022-10-08T01:20:42.125Z,48.84
2022-10-08T01:23:35.491Z,49.21
2022-10-08T01:26:09.842Z,48.88
2022-10-08T01:28:42.157Z,49.28
2022-10-08T01:31:11.715Z,49.06
2022-10-08T01:33:42.918Z,49.08
2022-10-08T01:36:11.432Z,49.20
2022-10-08T01:38:41.307Z,48.93
2022-10-08T01:41:10.586Z,48.94
2022-10-08T01:43:42.027Z,49.13
2022-10-08T01:46:11.982Z,48.83
2022-10-08T01:48:40.472Z,48.94
2022-10-08T01:51:10.238Z,49.18
2022-10-08T01:53:39.479Z,48.98
2022-10-08T01:56:07.791Z,48.99
2022-10-08T01:58:37.770Z,48.97
2022-10-08T02:01:12.295Z,49.00
2022-10-08T02:04:00.232Z,49.16
2022-10-08T02:06:28.273Z,49.05
2022-10-08T02:08:56.161Z,49.22
2022-10-08T02:11:24.143Z,48.98
2022-10-08T02:13:52.030Z,48.99
2022-10-08T02:16:24.479Z,49.37
2022-10-08T02:18:55.332Z,49.35
2022-10-08T02:21:24.996Z,49.17
2022-10-08T02:23:55.576Z,49.49
2022-10-08T02:26:25.605Z,49.52
2022-10-08T02:28:57.049Z,49.25
2022-10-08T02:31:29.303Z,49.27
2022-10-08T02:33:59.028Z,49.54
2022-10-08T02:36:28.643Z,49.57
2022-10-08T02:38:57.632Z,49.45
2022-10-08T02:41:27.328Z,49.33
2022-10-08T02:43:55.833Z,49.51
2022-10-08T02:46:25.031Z,49.57
2022-10-08T02:48:57.402Z,49.80
2022-10-08T02:51:25.255Z,49.81
2022-10-08T02:53:53.149Z,49.84
2022-10-08T02:56:22.836Z,49.69
2022-10-08T02:58:50.735Z,49.73
2022-10-08T03:01:24.321Z,50.00
2022-10-08T03:03:55.198Z,49.63
2022-10-08T03:06:23.065Z,50.14
2022-10-08T03:08:50.958Z,50.06
2022-10-08T03:11:18.873Z,50.05
2022-10-08T03:13:48.040Z,49.66
2022-10-08T03:16:17.152Z,50.00
2022-10-08T03:18:45.040Z,49.60
2022-10-08T03:21:14.595Z,49.70
2022-10-08T03:23:42.683Z,49.72
2022-10-08T03:26:10.545Z,49.87
2022-10-08T03:28:38.496Z,49.86
2022-10-08T03:31:06.826Z,49.72
2022-10-08T03:33:34.876Z,50.11
2022-10-08T03:36:02.784Z,50.14
2022-10-08T03:38:32.645Z,49.84
2022-10-08T03:41:00.630Z,50.25
2022-10-08T03:43:32.568Z,50.25
2022-10-08T03:46:00.504Z,49.99
2022-10-08T03:48:28.485Z,50.04
2022-10-08T03:50:57.545Z,50.12
2022-10-08T03:53:25.680Z,50.12
2022-10-08T03:55:54.933Z,50.28
2022-10-08T03:58:22.784Z,50.04
2022-10-08T04:00:58.321Z,50.38
2022-10-08T04:03:26.301Z,50.01
2022-10-08T04:05:54.261Z,50.07
2022-10-08T04:08:22.192Z,50.03
2022-10-08T04:10:50.161Z,50.15
2022-10-08T04:13:19.449Z,50.18
2022-10-08T04:15:48.477Z,50.16
2022-10-08T04:18:16.372Z,50.35
2022-10-08T04:20:44.473Z,50.25
2022-10-08T04:23:12.459Z,50.39
2022-10-08T04:25:40.348Z,50.52
2022-10-08T04:28:08.302Z,50.88
2022-10-08T04:30:37.697Z,50.64
2022-10-08T04:33:05.652Z,50.84
2022-10-08T04:35:33.573Z,50.76
2022-10-08T04:38:01.459Z,50.96
2022-10-08T04:40:29.336Z,51.14
2022-10-08T04:42:57.192Z,51.13
2022-10-08T04:45:25.081Z,51.14
2022-10-08T04:47:54.355Z,51.13
2022-10-08T04:50:22.234Z,51.09
2022-10-08T04:52:50.226Z,51.03
2022-10-08T04:55:18.112Z,51.48
2022-10-08T04:57:45.970Z,51.39
2022-10-08T05:00:18.104Z,51.33
2022-10-08T05:02:47.183Z,51.36
2022-10-08T05:05:16.722Z,51.22
2022-10-08T05:07:44.589Z,51.15
2022-10-08T05:10:12.686Z,51.69
2022-10-08T05:12:40.671Z,51.61
2022-10-08T05:15:10.016Z,51.20
2022-10-08T05:17:37.949Z,51.29
2022-10-08T05:20:06.958Z,51.13
2022-10-08T05:22:36.242Z,51.41
2022-10-08T05:25:04.099Z,51.02
2022-10-08T05:27:32.283Z,51.28
2022-10-08T05:30:00.185Z,51.52
2022-10-08T05:32:28.037Z,51.26
2022-10-08T05:34:55.996Z,51.36
2022-10-08T05:37:23.900Z,51.61
2022-10-08T05:39:53.177Z,51.30
2022-10-08T05:42:21.062Z,51.59
2022-10-08T05:44:48.919Z,51.24
2022-10-08T05:47:16.862Z,51.31
2022-10-08T05:49:44.732Z,51.36
2022-10-08T05:52:12.640Z,51.11
2022-10-08T05:54:40.530Z,51.32
2022-10-08T05:57:09.956Z,51.02
2022-10-08T05:59:37.911Z,51.15
2022-10-08T06:02:05.904Z,51.34
2022-10-08T06:04:33.913Z,51.23
2022-10-08T06:07:02.146Z,51.51
2022-10-08T06:09:30.111Z,51.54
2022-10-08T06:11:58.066Z,51.25
2022-10-08T06:14:27.772Z,51.51
2022-10-08T06:16:55.726Z,51.21
2022-10-08T06:19:23.589Z,51.45
2022-10-08T06:21:51.537Z,51.18
2022-10-08T06:24:19.617Z,51.58
2022-10-08T06:26:47.545Z,51.20
2022-10-08T06:29:16.940Z,51.43
2022-10-08T06:31:46.827Z,51.44
2022-10-08T06:34:14.755Z,51.61
2022-10-08T06:36:42.937Z,51.64
2022-10-08T06:39:11.988Z,51.38
2022-10-08T06:41:39.837Z,51.60
2022-10-08T06:44:09.203Z,51.55
2022-10-08T06:46:37.145Z,51.94
2022-10-08T06:49:06.644Z,51.94
2022-10-08T06:51:34.597Z,51.80
2022-10-08T06:54:07.458Z,51.96
2022-10-08T06:56:36.724Z,51.85
2022-10-08T06:59:04.905Z,51.89
2022-10-08T07:01:34.324Z,51.87
2022-10-08T07:04:02.458Z,52.17
2022-10-08T07:06:32.211Z,52.05
2022-10-08T07:09:01.192Z,52.14
2022-10-08T07:11:33.708Z,51.84
2022-10-08T07:14:01.744Z,52.02
2022-10-08T07:16:29.715Z,51.78
2022-10-08T07:18:58.620Z,51.81
2022-10-08T07:21:26.936Z,52.06
2022-10-08T07:24:20.995Z,51.91
2022-10-08T07:26:51.697Z,51.84
2022-10-08T07:29:19.627Z,52.17
2022-10-08T07:31:47.639Z,51.67
2022-10-08T07:34:15.569Z,52.02
2022-10-08T07:36:43.568Z,52.01
2022-10-08T07:39:14.713Z,52.23
2022-10-08T07:41:43.091Z,52.03
2022-10-08T07:44:12.132Z,52.44
2022-10-08T07:46:43.651Z,52.26
2022-10-08T07:49:11.567Z,52.19
2022-10-08T07:51:39.544Z,52.21
2022-10-08T07:54:08.480Z,52.39
2022-10-08T07:56:37.781Z,52.33
2022-10-08T07:59:08.441Z,52.56
2022-10-08T08:01:36.357Z,52.32
2022-10-08T08:04:05.342Z,52.55
2022-10-08T08:06:34.886Z,52.56
2022-10-08T08:09:02.804Z,52.72
2022-10-08T08:11:30.778Z,52.39
2022-10-08T08:14:00.139Z,52.25
2022-10-08T08:16:29.355Z,52.51
2022-10-08T08:18:58.262Z,52.54
2022-10-08T08:21:28.275Z,52.30
2022-10-08T08:23:57.402Z,52.46
2022-10-08T08:26:26.574Z,52.26
2022-10-08T08:28:55.475Z,52.25
2022-10-08T08:31:26.025Z,52.49
2022-10-08T08:33:55.190Z,52.02
2022-10-08T08:36:25.407Z,52.41
2022-10-08T08:38:53.333Z,52.18
2022-10-08T08:41:34.726Z,52.36
2022-10-08T08:44:03.801Z,52.30
2022-10-08T08:46:33.856Z,52.02
2022-10-08T08:49:03.719Z,52.16
2022-10-08T08:51:32.534Z,52.06
2022-10-08T08:54:00.635Z,52.20
2022-10-08T08:56:29.584Z,51.95
2022-10-08T08:59:06.941Z,51.65
2022-10-08T09:01:37.865Z,51.90
2022-10-08T09:04:07.830Z,51.54
2022-10-08T09:06:35.801Z,51.75
2022-10-08T09:09:06.997Z,51.65
2022-10-08T09:11:37.768Z,51.35
2022-10-08T09:14:14.710Z,51.21
2022-10-08T09:16:44.193Z,51.15
2022-10-08T09:19:12.270Z,51.03
2022-10-08T09:21:40.241Z,51.30
2022-10-08T09:24:08.152Z,50.96
2022-10-08T09:26:36.493Z,50.73
2022-10-08T09:29:04.835Z,50.94
2022-10-08T09:31:33.829Z,50.64
2022-10-08T09:34:06.472Z,50.94
2022-10-08T09:36:36.417Z,50.85
2022-10-08T09:39:06.065Z,50.69
2022-10-08T09:41:34.208Z,50.05
2022-10-08T09:44:14.004Z,49.72
2022-10-08T09:46:41.977Z,49.56
2022-10-08T09:49:32.170Z,49.24
2022-10-08T09:52:03.419Z,49.03
2022-10-08T09:54:32.347Z,48.98
2022-10-08T09:57:01.014Z,48.47
2022-10-08T10:02:40.129Z,47.85
2022-10-08T10:05:20.674Z,47.80
2022-10-08T10:07:48.546Z,47.80
2022-10-08T10:10:18.820Z,47.49
2022-10-08T10:12:49.628Z,47.07
2022-10-08T10:15:19.949Z,47.01
2022-10-08T10:17:51.196Z,46.88
2022-10-08T10:20:26.447Z,47.13
2022-10-08T10:22:57.278Z,47.28
2022-10-08T10:25:30.878Z,47.30
2022-10-08T10:28:00.768Z,46.70
2022-10-08T10:30:29.751Z,46.44
2022-10-08T10:32:59.589Z,45.92
2022-10-08T10:35:29.597Z,45.44
2022-10-08T10:38:00.836Z,45.20
2022-10-08T10:40:33.199Z,45.01
2022-10-08T10:43:45.654Z,44.81
2022-10-08T10:46:25.538Z,44.03
2022-10-08T10:48:53.633Z,44.15
2022-10-08T10:51:41.299Z,44.25
2022-10-08T10:54:37.699Z,44.33
2022-10-08T10:57:36.362Z,44.45
2022-10-08T11:00:06.294Z,44.73
2022-10-08T11:02:36.588Z,45.11
2022-10-08T11:05:07.977Z,46.95
2022-10-08T11:08:02.398Z,49.25
2022-10-08T11:10:37.691Z,47.80
2022-10-08T11:13:12.073Z,46.48
2022-10-08T11:15:42.585Z,45.54
2022-10-08T11:18:21.937Z,45.77
2022-10-08T11:21:01.750Z,46.62
2022-10-08T11:23:39.524Z,46.60
2022-10-08T11:26:21.838Z,45.65
2022-10-08T11:28:53.040Z,44.67
2022-10-08T11:31:26.090Z,44.51
2022-10-08T11:33:55.062Z,42.83
2022-10-08T11:36:30.512Z,42.56
2022-10-08T11:39:07.787Z,42.14
2022-10-08T11:41:39.171Z,42.01
2022-10-08T11:44:08.845Z,41.31
2022-10-08T11:46:36.959Z,40.58
2022-10-08T11:49:05.299Z,38.94
2022-10-08T11:51:40.239Z,38.39
2022-10-08T11:54:15.477Z,37.79
2022-10-08T11:56:45.021Z,37.23
2022-10-08T11:59:37.311Z,36.46
2022-10-08T12:02:21.653Z,36.44
2022-10-08T12:04:50.105Z,36.61
2022-10-08T12:07:24.697Z,35.47
2022-10-08T12:10:10.766Z,35.01
2022-10-08T12:13:03.299Z,35.21
2022-10-08T12:15:50.862Z,36.03
2022-10-08T12:19:10.561Z,35.15
2022-10-08T12:21:56.421Z,35.34
2022-10-08T12:24:57.762Z,35.08
2022-10-08T12:27:34.654Z,34.88
2022-10-08T12:30:04.275Z,34.43
2022-10-08T12:32:32.872Z,33.52
2022-10-08T12:35:01.718Z,33.14
2022-10-08T12:37:45.865Z,32.85
2022-10-08T12:40:21.161Z,32.82
2022-10-08T12:42:50.736Z,33.03
2022-10-08T12:45:21.953Z,33.08
2022-10-08T12:47:51.288Z,32.48
2022-10-08T12:50:40.217Z,32.16
2022-10-08T12:53:08.628Z,32.41
2022-10-08T12:55:39.165Z,32.55
2022-10-08T12:58:08.646Z,32.36
2022-10-08T13:00:37.186Z,31.74
2022-10-08T13:03:05.975Z,31.11
2022-10-08T13:05:34.866Z,31.64
2022-10-08T13:08:30.858Z,31.18
2022-10-08T13:10:59.288Z,31.05
2022-10-08T13:13:36.691Z,30.63
2022-10-08T13:16:06.005Z,30.70
2022-10-08T13:18:34.392Z,30.53
2022-10-08T13:21:03.160Z,30.25
2022-10-08T13:23:35.251Z,29.34
2022-10-08T13:26:03.184Z,29.83
2022-10-08T13:28:59.294Z,29.50
2022-10-08T13:31:25.353Z,29.27
2022-10-08T13:33:53.272Z,29.51
2022-10-08T13:36:22.753Z,29.31
2022-10-08T13:38:53.678Z,29.40
2022-10-08T13:41:23.807Z,29.19
2022-10-08T13:43:51.930Z,28.96
2022-10-08T13:46:19.861Z,29.37
2022-10-08T13:48:49.198Z,28.95
2022-10-08T13:51:17.084Z,28.87
2022-10-08T13:53:45.773Z,28.10
2022-10-08T13:56:13.846Z,28.07
2022-10-08T13:58:41.713Z,28.26
2022-10-08T14:01:09.680Z,28.75
2022-10-08T14:03:37.740Z,28.25
2022-10-08T14:06:07.500Z,28.16
2022-10-08T14:08:36.080Z,28.14
2022-10-08T14:11:04.110Z,28.17
2022-10-08T14:13:32.026Z,28.27
2022-10-08T14:15:59.926Z,28.64
2022-10-08T14:18:39.195Z,27.76
2022-10-08T14:21:08.670Z,27.88
2022-10-08T14:23:36.618Z,27.54
2022-10-08T14:26:04.580Z,27.79
2022-10-08T14:28:33.277Z,27.99
2022-10-08T14:31:01.450Z,27.61
2022-10-08T14:33:29.462Z,27.55
2022-10-08T14:35:57.372Z,27.35
2022-10-08T14:38:26.634Z,27.32
2022-10-08T14:40:54.612Z,27.42
2022-10-08T14:43:25.650Z,27.31
2022-10-08T14:45:55.488Z,27.54
2022-10-08T14:48:23.573Z,27.69
2022-10-08T14:50:51.453Z,27.82
2022-10-08T14:53:19.368Z,28.41
2022-10-08T14:56:10.962Z,28.26
2022-10-08T14:58:37.381Z,28.59
2022-10-08T15:01:05.363Z,28.61
2022-10-08T15:03:33.479Z,28.43
2022-10-08T15:06:01.471Z,28.61
2022-10-08T15:08:29.441Z,28.62
2022-10-08T15:10:58.738Z,28.56
2022-10-08T15:13:26.573Z,28.23
2022-10-08T15:15:54.837Z,27.88
2022-10-08T15:18:22.991Z,28.45
2022-10-08T15:20:55.590Z,28.37
2022-10-08T15:23:23.821Z,29.28
2022-10-08T15:26:25.212Z,29.53
2022-10-08T15:29:06.250Z,29.66
2022-10-08T15:31:34.152Z,29.62
2022-10-08T15:34:02.141Z,29.75
2022-10-08T15:36:30.877Z,30.00
2022-10-08T15:38:59.470Z,31.00
2022-10-08T15:41:29.757Z,31.30
2022-10-08T15:43:57.749Z,32.07
2022-10-08T15:46:28.971Z,32.44
2022-10-08T15:48:57.580Z,32.85
2022-10-08T15:51:26.299Z,33.38
2022-10-08T15:53:54.389Z,33.62
2022-10-08T15:56:22.654Z,34.24
2022-10-08T15:58:52.137Z,34.46
2022-10-08T16:01:21.211Z,34.90
2022-10-08T16:03:50.229Z,35.08
2022-10-08T16:06:19.041Z,35.33
2022-10-08T16:08:46.971Z,35.53
2022-10-08T16:11:15.437Z,35.71
2022-10-08T16:13:43.720Z,35.81
2022-10-08T16:16:15.346Z,36.09
2022-10-08T16:18:43.587Z,36.29
2022-10-08T16:21:11.737Z,36.28
2022-10-08T16:23:39.850Z,36.34
2022-10-08T16:26:08.987Z,36.56
2022-10-08T16:28:38.125Z,36.61
2022-10-08T16:31:08.808Z,36.78
2022-10-08T16:33:38.126Z,36.95
2022-10-08T16:36:07.327Z,37.10
2022-10-08T16:38:35.564Z,37.42
2022-10-08T16:41:13.970Z,37.68
2022-10-08T16:43:42.039Z,37.75
2022-10-08T16:46:17.062Z,37.92
2022-10-08T16:48:46.486Z,38.16
2022-10-08T16:51:14.375Z,38.46
2022-10-08T16:53:42.301Z,38.37
2022-10-08T16:56:10.619Z,38.71
2022-10-08T16:58:38.554Z,38.81
2022-10-08T17:01:08.376Z,38.91
2022-10-08T17:03:36.514Z,38.83
2022-10-08T17:06:06.680Z,39.03
2022-10-08T17:08:34.557Z,39.28
2022-10-08T17:11:05.312Z,39.29
2022-10-08T17:13:33.282Z,39.53
2022-10-08T17:16:01.689Z,39.85
2022-10-08T17:18:29.856Z,39.72
2022-10-08T17:20:58.196Z,39.92
2022-10-08T17:23:27.986Z,39.96
2022-10-08T17:25:56.881Z,39.99
2022-10-08T17:28:28.255Z,40.30
2022-10-08T17:30:58.107Z,40.54
2022-10-08T17:33:26.073Z,40.46
2022-10-08T17:36:00.906Z,40.63
2022-10-08T17:38:30.367Z,40.73
2022-10-08T17:40:58.342Z,40.88
2022-10-08T17:43:26.406Z,40.87
2022-10-08T17:45:54.401Z,41.44
2022-10-08T17:48:22.421Z,42.09
2022-10-08T17:50:50.281Z,42.36
2022-10-08T17:53:18.142Z,42.61
2022-10-08T17:55:47.565Z,43.36
2022-10-08T17:58:15.468Z,43.47
2022-10-08T18:00:43.351Z,43.32
2022-10-08T18:03:11.461Z,43.65
2022-10-08T18:05:39.480Z,43.88
2022-10-08T18:08:07.496Z,44.15
2022-10-08T18:10:38.154Z,44.75
2022-10-08T18:13:07.461Z,44.96
2022-10-08T18:15:37.672Z,45.51
2022-10-08T18:18:05.615Z,45.22
2022-10-08T18:20:33.512Z,45.53
2022-10-08T18:23:01.453Z,45.16
2022-10-08T18:25:29.452Z,45.39
2022-10-08T18:27:57.429Z,45.00
2022-10-08T18:30:27.071Z,45.24
2022-10-08T18:32:56.936Z,45.10
2022-10-08T18:35:25.645Z,45.40
2022-10-08T18:37:53.717Z,45.28
2022-10-08T18:40:21.695Z,45.31
2022-10-08T18:42:49.824Z,45.59
2022-10-08T18:45:18.111Z,46.22
2022-10-08T18:47:47.384Z,46.67
2022-10-08T18:50:15.758Z,47.26
2022-10-08T18:52:43.787Z,47.26
2022-10-08T18:55:11.665Z,47.58
2022-10-08T18:57:39.593Z,47.44
2022-10-08T19:00:08.695Z,47.79
2022-10-08T19:02:36.909Z,47.56
2022-10-08T19:05:07.414Z,47.64
2022-10-08T19:07:35.381Z,47.70
2022-10-08T19:10:03.374Z,48.00
2022-10-08T19:12:31.400Z,47.95
2022-10-08T19:14:59.478Z,48.05
2022-10-08T19:17:27.368Z,48.18
2022-10-08T19:19:55.272Z,48.65
2022-10-08T19:22:24.578Z,48.52
2022-10-08T19:24:52.779Z,48.87
2022-10-08T19:27:20.761Z,48.80
2022-10-08T19:29:48.680Z,49.38
2022-10-08T19:32:16.665Z,49.16
2022-10-08T19:34:44.496Z,48.95
2022-10-08T19:37:12.377Z,48.84
2022-10-08T19:39:44.161Z,48.67
2022-10-08T19:42:12.345Z,48.73
2022-10-08T19:44:40.272Z,48.57
2022-10-08T19:47:08.292Z,48.74
2022-10-08T19:49:36.186Z,48.73
2022-10-08T19:52:04.033Z,48.83
2022-10-08T19:54:31.949Z,49.00
2022-10-08T19:57:01.204Z,49.27
2022-10-08T19:59:29.096Z,49.64
2022-10-08T20:01:57.045Z,49.89
2022-10-08T20:04:24.975Z,49.75
2022-10-08T20:06:52.912Z,50.06
2022-10-08T20:09:21.206Z,50.00
2022-10-08T20:11:49.358Z,50.35
2022-10-08T20:14:18.836Z,50.11
2022-10-08T20:16:46.699Z,49.94
2022-10-08T20:19:16.671Z,49.74
2022-10-08T20:21:44.729Z,49.62
2022-10-08T20:24:12.832Z,49.80
2022-10-08T20:26:41.685Z,49.66
2022-10-08T20:29:10.313Z,49.80
2022-10-08T20:31:40.643Z,49.70
2022-10-08T20:34:09.529Z,49.45
2022-10-08T20:36:37.555Z,49.43
2022-10-08T20:39:05.779Z,49.84
2022-10-08T20:41:33.917Z,49.84
2022-10-08T20:44:03.033Z,49.95
2022-10-08T20:46:32.595Z,50.07
2022-10-08T20:49:01.926Z,49.99
2022-10-08T20:51:30.475Z,50.03
2022-10-08T20:53:59.607Z,50.40
2022-10-08T20:56:27.812Z,50.28
2022-10-08T20:58:55.719Z,50.32
2022-10-08T21:01:24.613Z,50.45
2022-10-08T21:03:52.652Z,50.42
2022-10-08T21:06:23.117Z,50.93
2022-10-08T21:08:51.684Z,50.79
2022-10-08T21:11:20.777Z,50.53
2022-10-08T21:13:48.768Z,50.78
2022-10-08T21:16:17.999Z,50.81
2022-10-08T21:18:46.084Z,50.96
2022-10-08T21:21:14.892Z,51.00
2022-10-08T21:23:44.721Z,51.30
2022-10-08T21:26:14.603Z,51.22
2022-10-08T21:28:43.168Z,51.59
2022-10-08T21:31:11.537Z,51.44
2022-10-08T21:33:39.921Z,51.28
2022-10-08T21:36:09.042Z,51.15
2022-10-08T21:38:36.932Z,51.38
2022-10-08T21:41:12.120Z,51.55
2022-10-08T21:43:41.678Z,51.62
2022-10-08T21:46:16.112Z,51.29
2022-10-08T21:48:45.878Z,51.26
2022-10-08T21:51:14.970Z,51.50
2022-10-08T21:53:49.776Z,51.33
2022-10-08T21:56:19.988Z,51.56
2022-10-08T21:58:49.100Z,51.52
2022-10-08T22:01:22.052Z,51.95
2022-10-08T22:03:50.172Z,51.70
2022-10-08T22:06:18.094Z,51.67
2022-10-08T22:08:45.982Z,52.17
2022-10-08T22:11:13.840Z,52.22
2022-10-08T22:13:43.111Z,52.50
2022-10-08T22:16:12.103Z,52.77
2022-10-08T22:18:40.065Z,52.62
2022-10-08T22:21:09.660Z,52.73
2022-10-08T22:23:37.546Z,52.58
2022-10-08T22:26:06.568Z,52.37
2022-10-08T22:28:34.556Z,52.42
2022-10-08T22:31:04.587Z,52.56
2022-10-08T22:33:32.541Z,52.32
2022-10-08T22:36:03.449Z,52.18
2022-10-08T22:38:32.141Z,52.25
2022-10-08T22:41:03.679Z,52.34
2022-10-08T22:43:31.573Z,52.38
2022-10-08T22:46:04.040Z,52.52
2022-10-08T22:48:31.973Z,52.42
2022-10-08T22:51:02.477Z,52.38
2022-10-08T22:53:30.450Z,52.41
2022-10-08T22:55:58.305Z,52.80
2022-10-08T22:58:26.239Z,52.81
2022-10-08T23:01:00.877Z,52.98
2022-10-08T23:03:30.257Z,52.97
2022-10-08T23:06:02.566Z,53.17
2022-10-08T23:08:30.505Z,53.40
2022-10-08T23:10:58.412Z,53.54
2022-10-08T23:13:26.320Z,53.25
2022-10-08T23:16:00.137Z,53.33
2022-10-08T23:18:27.977Z,53.36
2022-10-08T23:20:57.278Z,53.40
2022-10-08T23:23:25.137Z,53.42
2022-10-08T23:25:56.793Z,53.47
2022-10-08T23:28:24.753Z,53.48
2022-10-08T23:30:52.658Z,53.37
2022-10-08T23:33:20.561Z,53.45
2022-10-08T23:35:54.876Z,53.71
2022-10-08T23:38:24.144Z,53.88
2022-10-08T23:40:52.055Z,53.73
2022-10-08T23:43:19.959Z,53.85
2022-10-08T23:45:47.902Z,53.90
2022-10-08T23:48:15.799Z,53.96
2022-10-08T23:50:43.691Z,53.92
2022-10-08T23:53:11.602Z,53.90
2022-10-08T23:55:40.868Z,53.90
2022-10-08T23:58:08.700Z,53.83
